Time;durP1;ratioP1;P1;durP2;ratioP2;P2;SDS_P1;SDS_P2;PMS_P1;PMS_P2;Temp;Humidity;BMP_temperature;BMP_pressure;BME280_temperature;BME280_humidity;BME280_pressure;Samples;Min_cycle;Max_cycle;Signal;HPM_P1;HPM_P2
2022/03/26 00:00:12;;;;;;;0.00;0.00;;;;;;;12.81;48.63;102758.06;7349848;19;20011;-63
2022/03/26 00:02:37;;;;;;;0.00;0.00;;;;;;;12.77;48.24;102757.19;7360796;19;20019;-62
2022/03/26 00:05:04;;;;;;;0.00;0.00;;;;;;;12.70;48.54;102766.81;7359996;19;20082;-63
2022/03/26 00:07:29;;;;;;;0.00;0.00;;;;;;;12.66;47.45;102762.41;7356887;19;20515;-63
2022/03/26 00:09:54;;;;;;;0.00;0.00;;;;;;;12.58;47.51;102756.31;7358602;19;20066;-62
2022/03/26 00:12:20;;;;;;;0.00;0.00;;;;;;;12.52;47.84;102751.06;7361806;19;20019;-63
2022/03/26 00:14:45;;;;;;;0.00;0.00;;;;;;;12.36;48.24;102746.63;7356858;19;20010;-63
2022/03/26 00:17:11;;;;;;;0.00;0.00;;;;;;;12.40;47.34;102758.88;7339529;19;20010;-62
2022/03/26 00:19:36;;;;;;;0.00;0.00;;;;;;;12.34;47.91;102766.72;7358951;19;20090;-62
2022/03/26 00:22:02;;;;;;;0.00;0.00;;;;;;;12.29;48.12;102765.84;7349644;19;20675;-62
2022/03/26 00:24:27;;;;;;;0.00;0.00;;;;;;;12.24;48.09;102770.19;7352234;19;20014;-63
2022/03/26 00:26:53;;;;;;;0.00;0.00;;;;;;;12.19;48.00;102767.56;7361288;19;20513;-62
2022/03/26 00:29:19;;;;;;;0.00;0.00;;;;;;;12.15;47.76;102765.78;7360738;19;20011;-62
2022/03/26 00:31:45;;;;;;;0.00;0.00;;;;;;;12.10;48.79;102768.38;7351276;19;20388;-62
2022/03/26 00:34:12;;;;;;;0.00;0.00;;;;;;;12.07;49.33;102768.38;7358804;19;20537;-63
2022/03/26 00:36:38;;;;;;;0.00;0.00;;;;;;;12.02;49.35;102758.75;7357367;19;20014;-63
2022/03/26 00:39:03;;;;;;;0.00;0.00;;;;;;;11.95;49.05;102758.72;7357745;19;20023;-62
2022/03/26 00:41:29;;;;;;;0.00;0.00;;;;;;;11.89;49.13;102763.06;7358342;19;20111;-62
2022/03/26 00:43:55;;;;;;;0.00;0.00;;;;;;;11.80;49.13;102755.13;7349181;19;20034;-62
2022/03/26 00:46:21;;;;;;;0.00;0.00;;;;;;;11.80;49.17;102768.19;7356730;19;20002;-62
2022/03/26 00:48:47;;;;;;;0.00;0.00;;;;;;;11.73;49.33;102758.56;7357292;19;20111;-63
2022/03/26 00:51:16;;;;;;;0.00;0.00;;;;;;;11.62;48.33;102753.28;7358657;19;20094;-62
2022/03/26 00:53:42;;;;;;;0.00;0.00;;;;;;;11.57;48.49;102755.88;7358480;19;20011;-62
2022/03/26 00:56:07;;;;;;;0.00;0.00;;;;;;;11.47;48.24;102743.59;7355113;19;20078;-62
2022/03/26 00:58:33;;;;;;;0.00;0.00;;;;;;;11.51;48.56;102754.97;7355390;19;20506;-62
2022/03/26 01:00:58;;;;;;;0.00;0.00;;;;;;;11.44;48.58;102757.53;7356832;19;20055;-62
2022/03/26 01:03:24;;;;;;;0.00;0.00;;;;;;;11.42;49.39;102763.63;7358276;19;20682;-63
2022/03/26 01:05:49;;;;;;;0.00;0.00;;;;;;;11.24;48.63;102739.94;7349958;19;20090;-62
2022/03/26 01:08:14;;;;;;;0.00;0.00;;;;;;;11.33;49.03;102771.41;7357629;19;20011;-63
2022/03/26 01:10:41;;;;;;;0.00;0.00;;;;;;;11.25;48.99;102765.22;7358037;19;20158;-62
2022/03/26 01:13:11;;;;;;;0.00;0.00;;;;;;;11.23;48.88;102759.13;7357171;19;20026;-62
2022/03/26 01:15:37;;;;;;;0.00;0.00;;;;;;;11.17;48.79;102755.59;7354673;19;20753;-62
2022/03/26 01:18:03;;;;;;;0.00;0.00;;;;;;;11.05;48.87;102738.91;7357079;19;20010;-63
2022/03/26 01:20:28;;;;;;;0.00;0.00;;;;;;;10.99;48.91;102739.75;7356453;19;20399;-62
2022/03/26 01:22:54;;;;;;;0.10;0.10;;;;;;;11.05;49.46;102750.28;7349165;19;20014;-62
2022/03/26 01:25:19;;;;;;;0.00;0.00;;;;;;;10.99;49.42;102744.97;7359877;19;20011;-62
2022/03/26 01:27:44;;;;;;;0.10;0.10;;;;;;;11.00;50.86;102748.47;7349245;19;20011;-62
2022/03/26 01:30:10;;;;;;;0.00;0.00;;;;;;;10.85;50.49;102725.72;7353532;19;20066;-63
2022/03/26 01:32:36;;;;;;;0.00;0.00;;;;;;;10.91;50.84;102749.28;7360488;19;20010;-63
2022/03/26 01:35:01;;;;;;;0.00;0.00;;;;;;;10.88;50.29;102744.03;7359253;19;20593;-62
2022/03/26 01:37:27;;;;;;;0.10;0.10;;;;;;;10.84;50.32;102750.06;7357699;19;20034;-62
2022/03/26 01:39:54;;;;;;;0.00;0.00;;;;;;;10.81;50.37;102744.84;7367221;19;20011;-62
2022/03/26 01:42:20;;;;;;;0.00;0.00;;;;;;;10.78;50.38;102739.56;7365039;19;20022;-63
2022/03/26 01:44:46;;;;;;;0.00;0.00;;;;;;;10.76;50.64;102736.09;7359252;19;20018;-62
2022/03/26 01:47:12;;;;;;;0.10;0.10;;;;;;;10.63;50.19;102709.81;7364497;19;21092;-62
2022/03/26 01:49:37;;;;;;;0.00;0.00;;;;;;;10.65;50.85;102729.00;7348162;19;20033;-63
2022/03/26 01:52:04;;;;;;;0.00;0.00;;;;;;;10.71;50.53;102733.41;7365188;19;20442;-62
2022/03/26 01:54:31;;;;;;;0.00;0.00;;;;;;;10.70;50.83;102736.03;7348977;19;20026;-62
2022/03/26 01:56:57;;;;;;;0.00;0.00;;;;;;;10.68;50.91;102738.59;7362144;19;20050;-63
2022/03/26 01:59:27;;;;;;;0.00;0.00;;;;;;;10.67;50.70;102733.38;7363819;19;20022;-62
2022/03/26 02:01:53;;;;;;;0.00;0.00;;;;;;;10.64;51.62;102735.13;7357854;19;20078;-62
2022/03/26 02:04:18;;;;;;;0.08;0.08;;;;;;;10.59;51.45;102735.91;7365065;19;20094;-62
2022/03/26 02:06:44;;;;;;;0.00;0.00;;;;;;;10.55;51.42;102735.00;7353955;19;20102;-62
2022/03/26 02:09:13;;;;;;;0.00;0.00;;;;;;;10.51;50.96;102741.06;7361655;19;20026;-62
2022/03/26 02:11:42;;;;;;;0.00;0.00;;;;;;;10.47;50.72;102739.28;7355227;19;20011;-63
2022/03/26 02:14:09;;;;;;;0.00;0.00;;;;;;;10.40;51.30;102732.25;7361081;19;20019;-62
2022/03/26 02:16:36;;;;;;;0.00;0.00;;;;;;;10.33;51.51;102741.72;7362140;19;20035;-62
2022/03/26 02:19:03;;;;;;;0.00;0.00;;;;;;;10.18;51.95;102731.06;7360480;19;20521;-62
2022/03/26 02:21:29;;;;;;;0.00;0.00;;;;;;;10.10;52.15;102737.97;7361589;19;20030;-63
2022/03/26 02:23:55;;;;;;;0.00;0.00;;;;;;;9.97;52.34;102739.53;7345257;19;20014;-62
2022/03/26 02:26:25;;;;;;;0.00;0.00;;;;;;;9.91;53.63;102741.19;7363156;19;20102;-62
2022/03/26 02:28:50;;;;;;;0.03;0.03;;;;;;;9.82;53.01;102736.72;7352966;19;20022;-62
2022/03/26 02:31:16;;;;;;;0.00;0.00;;;;;;;9.71;53.68;102727.88;7358244;19;20036;-62
2022/03/26 02:33:42;;;;;;;0.00;0.00;;;;;;;9.75;53.23;102727.09;7360851;19;20010;-62
2022/03/26 02:36:08;;;;;;;0.00;0.00;;;;;;;9.74;53.73;102721.00;7364418;19;20497;-63
2022/03/26 02:38:34;;;;;;;0.00;0.00;;;;;;;9.64;53.45;102715.63;7361196;19;20013;-63
2022/03/26 02:40:59;;;;;;;0.00;0.00;;;;;;;9.59;52.70;102700.78;7362829;19;25516;-62
2022/03/26 02:43:26;;;;;;;0.00;0.00;;;;;;;9.74;52.95;102722.72;7358872;19;20022;-62
2022/03/26 02:45:52;;;;;;;0.00;0.00;;;;;;;9.73;52.63;102727.06;7362403;19;20038;-62
2022/03/26 02:48:17;;;;;;;0.00;0.00;;;;;;;9.73;53.04;102721.84;7360445;19;20021;-62
2022/03/26 02:50:43;;;;;;;0.00;0.00;;;;;;;9.73;52.90;102727.06;7349301;19;20050;-62
2022/03/26 02:53:09;;;;;;;0.10;0.10;;;;;;;9.70;53.78;102715.72;7361877;19;20010;-63
2022/03/26 02:55:35;;;;;;;0.00;0.00;;;;;;;9.65;54.21;102712.16;7361712;19;22184;-62
2022/03/26 02:58:04;;;;;;;0.00;0.00;;;;;;;9.52;53.91;102701.53;7354274;19;20142;-62
2022/03/26 03:00:30;;;;;;;0.00;0.00;;;;;;;9.59;53.92;102723.41;7353746;19;20935;-62
2022/03/26 03:02:56;;;;;;;0.00;0.00;;;;;;;9.53;54.28;102724.19;7353569;19;20011;-62
2022/03/26 03:05:21;;;;;;;0.00;0.00;;;;;;;9.47;54.13;102724.06;7351095;19;20021;-62
2022/03/26 03:07:47;;;;;;;0.00;0.00;;;;;;;9.44;54.51;102724.06;7358737;19;20022;-62
2022/03/26 03:10:15;;;;;;;0.00;0.00;;;;;;;9.41;55.26;102721.38;7350850;19;20094;-62
2022/03/26 03:12:45;;;;;;;0.00;0.00;;;;;;;9.38;54.46;102721.38;7345435;19;20753;-63
2022/03/26 03:15:11;;;;;;;0.00;0.00;;;;;;;9.35;54.48;102727.38;7357734;19;20010;-62
2022/03/26 03:17:38;;;;;;;0.00;0.00;;;;;;;9.36;54.92;102720.44;7357839;19;21339;-62
2022/03/26 03:20:06;;;;;;;0.00;0.00;;;;;;;9.35;54.55;102726.53;7357548;19;20096;-62
2022/03/26 03:22:32;;;;;;;0.00;0.00;;;;;;;9.33;54.76;102729.13;7354543;19;20010;-62
2022/03/26 03:24:57;;;;;;;0.00;0.00;;;;;;;9.30;55.33;102726.44;7349078;19;20018;-62
2022/03/26 03:27:23;;;;;;;0.00;0.00;;;;;;;9.26;54.66;102727.25;7355741;19;20069;-63
2022/03/26 03:29:49;;;;;;;0.00;0.00;;;;;;;9.27;54.35;102736.81;7354419;19;20027;-62
2022/03/26 03:32:14;;;;;;;0.00;0.00;;;;;;;9.29;54.39;102745.56;7343038;19;20109;-61
2022/03/26 03:34:40;;;;;;;0.00;0.00;;;;;;;9.30;53.32;102746.44;7356085;19;20481;-62
2022/03/26 03:37:05;;;;;;;0.00;0.00;;;;;;;9.28;53.24;102737.72;7358328;19;20027;-62
2022/03/26 03:39:31;;;;;;;0.00;0.00;;;;;;;9.29;52.88;102747.28;7354083;19;20082;-62
2022/03/26 03:41:56;;;;;;;0.00;0.00;;;;;;;9.28;53.43;102748.16;7349065;19;20113;-62
2022/03/26 03:44:22;;;;;;;0.00;0.00;;;;;;;9.26;53.21;102745.50;7347982;19;20976;-62
2022/03/26 03:46:48;;;;;;;0.00;0.00;;;;;;;9.25;52.77;102748.09;7356745;19;20010;-63
2022/03/26 03:49:13;;;;;;;0.00;0.00;;;;;;;9.12;52.79;102735.72;7351306;19;20484;-63
2022/03/26 03:51:39;;;;;;;0.10;0.10;;;;;;;9.22;53.86;102754.13;7355623;19;20019;-62
2022/03/26 03:54:05;;;;;;;0.03;0.03;;;;;;;9.19;53.75;102753.22;7346330;19;20006;-62
2022/03/26 03:56:30;;;;;;;0.00;0.00;;;;;;;9.17;53.61;102760.13;7349484;19;20022;-63
2022/03/26 03:58:56;;;;;;;0.00;0.00;;;;;;;9.13;55.00;102755.72;7351916;19;20010;-62
2022/03/26 04:01:21;;;;;;;0.05;0.05;;;;;;;9.07;53.65;102749.56;7352388;19;20021;-62
2022/03/26 04:03:47;;;;;;;0.00;0.00;;;;;;;9.12;54.30;102761.78;7352203;19;20014;-62
2022/03/26 04:06:12;;;;;;;0.00;0.00;;;;;;;9.09;54.24;102762.63;7343207;19;20733;-62
2022/03/26 04:08:38;;;;;;;0.00;0.00;;;;;;;8.95;56.21;102744.13;7356893;19;20773;-61
2022/03/26 04:11:03;;;;;;;0.00;0.00;;;;;;;9.03;54.60;102765.13;7355336;19;20078;-62
2022/03/26 04:13:29;;;;;;;0.00;0.00;;;;;;;8.99;55.50;102753.75;7346359;19;20006;-62
2022/03/26 04:15:55;;;;;;;0.00;0.00;;;;;;;8.96;54.84;102764.13;7357103;19;20018;-63
2022/03/26 04:18:20;;;;;;;0.00;0.00;;;;;;;8.88;55.00;102744.91;7357017;19;20862;-61
2022/03/26 04:20:46;;;;;;;0.00;0.00;;;;;;;8.88;54.61;102752.72;7355881;19;20009;-62
2022/03/26 04:23:11;;;;;;;0.00;0.00;;;;;;;8.84;53.76;102756.09;7357530;19;20033;-61
2022/03/26 04:25:38;;;;;;;0.00;0.00;;;;;;;8.71;53.85;102743.69;7346811;19;20010;-62
2022/03/26 04:28:04;;;;;;;0.00;0.00;;;;;;;8.81;53.38;102751.72;7357786;19;20010;-62
2022/03/26 04:30:29;;;;;;;0.00;0.00;;;;;;;8.80;53.89;102762.97;7358300;19;20649;-62
2022/03/26 04:32:55;;;;;;;0.00;0.00;;;;;;;8.78;53.50;102758.63;7353841;19;20090;-62
2022/03/26 04:35:21;;;;;;;0.00;0.00;;;;;;;8.76;53.82;102762.91;7352209;19;20029;-63
2022/03/26 04:37:47;;;;;;;0.00;0.00;;;;;;;8.74;53.59;102757.66;7357554;19;20152;-62
2022/03/26 04:40:14;;;;;;;0.00;0.00;;;;;;;8.72;53.98;102755.91;7358635;19;20014;-61
2022/03/26 04:42:41;;;;;;;0.00;0.00;;;;;;;8.70;55.08;102761.06;7354847;19;20027;-63
2022/03/26 04:45:10;;;;;;;0.00;0.00;;;;;;;8.66;55.60;102756.63;7359958;19;20043;-62
2022/03/26 04:47:35;;;;;;;0.00;0.00;;;;;;;8.58;55.24;102742.63;7355212;19;20021;-62
2022/03/26 04:50:01;;;;;;;0.00;0.00;;;;;;;8.66;56.03;102766.19;7353935;19;20010;-63
2022/03/26 04:52:26;;;;;;;0.00;0.00;;;;;;;8.60;56.08;102751.31;7361555;19;20370;-62
2022/03/26 04:54:52;;;;;;;0.00;0.00;;;;;;;8.63;55.15;102763.53;7351190;19;20474;-63
2022/03/26 04:57:18;;;;;;;0.00;0.00;;;;;;;8.61;54.90;102765.22;7361006;19;20014;-62
2022/03/26 04:59:44;;;;;;;0.03;0.03;;;;;;;8.60;54.61;102766.06;7358862;19;20618;-62
2022/03/26 05:02:09;;;;;;;0.00;0.00;;;;;;;8.60;55.02;102760.88;7353648;19;20014;-62
2022/03/26 05:04:35;;;;;;;0.00;0.00;;;;;;;8.57;54.03;102756.50;7358613;19;20473;-62
2022/03/26 05:07:00;;;;;;;0.00;0.00;;;;;;;8.56;54.17;102760.81;7358112;19;20014;-62
2022/03/26 05:09:26;;;;;;;0.00;0.00;;;;;;;8.47;55.34;102747.63;7365072;19;20641;-61
2022/03/26 05:11:51;;;;;;;0.00;0.00;;;;;;;8.52;55.43;102756.41;7364480;19;20011;-62
2022/03/26 05:14:17;;;;;;;0.00;0.00;;;;;;;8.45;55.80;102745.84;7365919;19;20052;-62
2022/03/26 05:16:43;;;;;;;0.10;0.10;;;;;;;8.49;55.14;102760.69;7358084;19;20006;-62
2022/03/26 05:19:09;;;;;;;0.00;0.00;;;;;;;8.47;55.20;102765.88;7361188;19;20664;-63
2022/03/26 05:21:34;;;;;;;0.00;0.00;;;;;;;8.44;55.10;102765.78;7363335;19;20013;-62
2022/03/26 05:23:59;;;;;;;0.00;0.00;;;;;;;8.42;55.07;102764.91;7364042;19;20720;-62
2022/03/26 05:26:25;;;;;;;0.00;0.00;;;;;;;8.44;55.87;102772.72;7363424;19;20052;-62
2022/03/26 05:28:51;;;;;;;0.00;0.00;;;;;;;8.42;55.52;102770.09;7367462;19;20760;-62
2022/03/26 05:31:17;;;;;;;0.00;0.00;;;;;;;8.39;56.55;102772.63;7362134;19;20621;-62
2022/03/26 05:33:42;;;;;;;0.00;0.00;;;;;;;8.32;56.17;102760.31;7360340;19;20045;-62
2022/03/26 05:36:07;;;;;;;0.00;0.00;;;;;;;8.35;55.70;102770.78;7360843;19;20743;-62
2022/03/26 05:38:34;;;;;;;0.00;0.00;;;;;;;8.35;55.66;102773.38;7358605;19;20752;-62
2022/03/26 05:40:59;;;;;;;0.10;0.10;;;;;;;8.31;55.38;102779.38;7361651;19;20027;-63
2022/03/26 05:43:25;;;;;;;0.03;0.03;;;;;;;8.29;55.88;102776.75;7362885;19;20433;-62
2022/03/26 05:45:51;;;;;;;0.00;0.00;;;;;;;8.14;55.19;102758.22;7360234;19;20021;-62
2022/03/26 05:48:17;;;;;;;0.00;0.00;;;;;;;8.20;55.83;102770.47;7359143;19;20641;-62
2022/03/26 05:50:44;;;;;;;0.00;0.00;;;;;;;8.20;56.04;102781.75;7362310;19;20014;-62
2022/03/26 05:53:10;;;;;;;0.00;0.00;;;;;;;8.17;55.90;102786.91;7361389;19;20601;-62
2022/03/26 05:55:35;;;;;;;0.00;0.00;;;;;;;8.14;55.65;102789.44;7362541;19;20139;-62
2022/03/26 05:58:01;;;;;;;0.00;0.00;;;;;;;8.04;56.03;102774.50;7363091;19;20033;-62
2022/03/26 06:00:26;;;;;;;0.00;0.00;;;;;;;8.09;55.83;102793.69;7363692;19;20036;-62
2022/03/26 06:02:52;;;;;;;0.00;0.00;;;;;;;7.97;56.36;102776.09;7360126;19;20383;-62
2022/03/26 06:05:17;;;;;;;0.10;0.10;;;;;;;8.01;56.05;102790.94;7365504;19;20716;-62
2022/03/26 06:07:43;;;;;;;0.10;0.10;;;;;;;7.96;56.33;102797.75;7357844;19;20017;-62
2022/03/26 06:10:08;;;;;;;0.10;0.10;;;;;;;7.89;56.03;102790.66;7363237;19;20103;-61
2022/03/26 06:12:35;;;;;;;0.00;0.00;;;;;;;7.91;56.46;102793.31;7363084;19;20018;-62
2022/03/26 06:15:03;;;;;;;0.00;0.00;;;;;;;7.90;56.42;102794.13;7359460;19;20018;-62
2022/03/26 06:17:28;;;;;;;0.00;0.00;;;;;;;7.85;55.75;102794.03;7364745;19;24047;-64
2022/03/26 06:19:53;;;;;;;0.00;0.00;;;;;;;7.86;55.88;102801.00;7354284;19;20006;-63
2022/03/26 06:22:19;;;;;;;0.00;0.00;;;;;;;7.73;55.90;102783.34;7363513;19;20046;-63
2022/03/26 06:24:45;;;;;;;0.00;0.00;;;;;;;7.87;55.78;102812.28;7356621;19;20502;-63
2022/03/26 06:27:11;;;;;;;0.00;0.00;;;;;;;7.86;56.27;102803.59;7365269;19;20014;-63
2022/03/26 06:29:36;;;;;;;0.00;0.00;;;;;;;7.84;56.19;102807.00;7356340;19;20021;-63
2022/03/26 06:32:02;;;;;;;0.00;0.00;;;;;;;7.86;56.41;102816.63;7361250;19;20019;-63
2022/03/26 06:34:28;;;;;;;0.00;0.00;;;;;;;7.86;56.32;102814.00;7350645;19;20060;-63
2022/03/26 06:36:54;;;;;;;0.00;0.00;;;;;;;7.86;57.41;102820.94;7364551;19;20756;-63
2022/03/26 06:39:20;;;;;;;0.03;0.03;;;;;;;7.86;57.08;102821.81;7352770;19;20639;-64
2022/03/26 06:41:45;;;;;;;0.00;0.00;;;;;;;7.88;57.31;102821.84;7365960;19;20039;-63
2022/03/26 06:44:12;;;;;;;0.00;0.00;;;;;;;7.87;57.63;102831.38;7357027;19;20002;-63
2022/03/26 06:46:38;;;;;;;0.00;0.00;;;;;;;7.87;57.24;102831.38;7360360;19;20028;-61
2022/03/26 06:49:07;;;;;;;0.00;0.00;;;;;;;7.87;56.69;102828.75;7358712;19;20106;-63
2022/03/26 06:51:33;;;;;;;0.00;0.00;;;;;;;7.81;57.33;102833.84;7361111;19;20010;-63
2022/03/26 06:53:59;;;;;;;0.00;0.00;;;;;;;7.79;57.13;102840.69;7364797;19;20348;-63
2022/03/26 06:56:25;;;;;;;0.00;0.00;;;;;;;7.73;57.56;102840.56;7356966;19;20010;-63
2022/03/26 06:58:50;;;;;;;0.00;0.00;;;;;;;7.71;57.74;102850.06;7358345;19;20348;-63
2022/03/26 07:01:16;;;;;;;0.00;0.00;;;;;;;7.70;57.49;102851.75;7358299;19;20010;-64
2022/03/26 07:03:41;;;;;;;0.00;0.00;;;;;;;7.70;58.06;102853.50;7355025;19;20012;-63
2022/03/26 07:06:06;;;;;;;0.00;0.00;;;;;;;7.69;58.03;102865.63;7353523;19;20065;-63
2022/03/26 07:08:32;;;;;;;0.00;0.00;;;;;;;7.70;58.63;102866.50;7363113;19;20379;-63
2022/03/26 07:10:59;;;;;;;0.00;0.00;;;;;;;7.73;59.34;102861.38;7359680;19;20965;-63
2022/03/26 07:13:24;;;;;;;0.00;0.00;;;;;;;7.75;59.13;102864.88;7358896;19;20843;-63
2022/03/26 07:15:50;;;;;;;0.00;0.00;;;;;;;7.79;59.11;102871.91;7350949;19;20019;-63
2022/03/26 07:18:16;;;;;;;0.00;0.00;;;;;;;7.82;59.08;102866.81;7353794;19;20010;-64
2022/03/26 07:20:42;;;;;;;0.00;0.00;;;;;;;7.92;59.07;102860.97;7357103;19;20013;-63
2022/03/26 07:23:07;;;;;;;0.00;0.00;;;;;;;8.00;59.09;102879.34;7362831;19;20034;-63
2022/03/26 07:25:33;;;;;;;0.00;0.00;;;;;;;8.04;58.52;102863.81;7351257;19;20033;-63
2022/03/26 07:27:58;;;;;;;0.08;0.08;;;;;;;8.11;58.87;102871.75;7356567;19;20031;-63
2022/03/26 07:30:24;;;;;;;0.00;0.00;;;;;;;8.16;58.64;102873.66;7355516;19;20022;-63
2022/03/26 07:32:49;;;;;;;0.00;0.00;;;;;;;8.21;58.90;102876.34;7345156;19;20108;-63
2022/03/26 07:35:16;;;;;;;0.00;0.00;;;;;;;8.26;59.27;102875.63;7348208;19;20006;-63
2022/03/26 07:37:43;;;;;;;0.00;0.00;;;;;;;8.16;58.86;102846.72;7349080;19;20832;-63
2022/03/26 07:40:10;;;;;;;0.00;0.00;;;;;;;8.32;58.57;102875.75;7347866;19;20010;-63
2022/03/26 07:42:36;;;;;;;0.00;0.00;;;;;;;8.43;59.06;102877.72;7353050;19;20601;-63
2022/03/26 07:45:02;;;;;;;0.10;0.10;;;;;;;8.46;60.01;102873.44;7338418;19;20018;-63
2022/03/26 07:47:27;;;;;;;0.00;0.00;;;;;;;8.55;59.54;102878.84;7347951;19;20010;-64
2022/03/26 07:49:53;;;;;;;0.00;0.00;;;;;;;8.63;59.41;102884.22;7351427;19;20022;-63
2022/03/26 07:52:18;;;;;;;0.00;0.00;;;;;;;8.68;58.98;102876.50;7356129;19;20423;-63
2022/03/26 07:54:44;;;;;;;0.00;0.00;;;;;;;8.79;58.33;102890.63;7357477;19;20030;-63
2022/03/26 07:57:09;;;;;;;0.08;0.08;;;;;;;8.89;58.91;102889.06;7355541;19;20022;-63
2022/03/26 07:59:34;;;;;;;0.00;0.00;;;;;;;8.98;58.60;102890.13;7355009;19;20815;-63
2022/03/26 08:02:00;;;;;;;0.00;0.00;;;;;;;9.08;58.83;102892.06;7359120;19;20797;-63
2022/03/26 08:04:26;;;;;;;0.00;0.00;;;;;;;9.20;59.79;102893.13;7359395;19;20006;-63
2022/03/26 08:06:51;;;;;;;0.00;0.00;;;;;;;9.30;59.11;102897.66;7346115;19;20661;-63
2022/03/26 08:09:16;;;;;;;0.00;0.00;;;;;;;9.41;58.71;102896.09;7355743;19;20650;-63
2022/03/26 08:11:45;;;;;;;0.10;0.10;;;;;;;9.54;58.77;102894.59;7358013;19;20003;-64
2022/03/26 08:14:13;;;;;;;0.00;0.00;;;;;;;9.66;58.95;102891.31;7359218;19;20081;-64
2022/03/26 08:16:40;;;;;;;0.00;0.00;;;;;;;9.79;58.84;102888.91;7347100;19;20434;-64
2022/03/26 08:19:06;;;;;;;0.00;0.00;;;;;;;9.91;58.60;102892.56;7353092;19;20029;-63
2022/03/26 08:21:35;;;;;;;0.00;0.00;;;;;;;9.87;58.63;102865.53;7353591;19;20042;-64
2022/03/26 08:24:00;;;;;;;0.00;0.00;;;;;;;10.10;58.48;102890.25;7352892;19;20015;-63
2022/03/26 08:26:29;;;;;;;0.00;0.00;;;;;;;10.30;58.02;102892.31;7358826;19;20133;-64
2022/03/26 08:28:57;;;;;;;0.00;0.00;;;;;;;10.47;59.09;102901.22;7340088;19;20027;-63
2022/03/26 08:31:24;;;;;;;0.00;0.00;;;;;;;10.65;59.22;102898.84;7355581;19;20014;-64
2022/03/26 08:33:49;;;;;;;0.00;0.00;;;;;;;10.87;59.36;102901.72;7353480;19;20074;-64
2022/03/26 08:36:17;;;;;;;0.00;0.00;;;;;;;11.04;59.58;102896.66;7358618;19;20073;-64
2022/03/26 08:38:46;;;;;;;0.00;0.00;;;;;;;11.33;59.63;102903.06;7353875;19;20010;-64
2022/03/26 08:41:13;;;;;;;0.00;0.00;;;;;;;11.57;59.56;102897.19;7358100;19;20518;-63
2022/03/26 08:43:39;;;;;;;0.00;0.00;;;;;;;11.81;59.09;102895.59;7362442;19;20900;-63
2022/03/26 08:46:04;;;;;;;0.00;0.00;;;;;;;12.06;58.81;102899.28;7364196;19;20011;-63
2022/03/26 08:48:30;;;;;;;0.00;0.00;;;;;;;12.24;59.41;102885.44;7362565;19;20026;-63
2022/03/26 08:50:55;;;;;;;0.00;0.00;;;;;;;12.51;58.07;102889.94;7361195;19;20002;-63
2022/03/26 08:53:21;;;;;;;0.08;0.08;;;;;;;12.84;58.36;102895.31;7356557;19;20912;-63
2022/03/26 08:55:47;;;;;;;0.00;0.00;;;;;;;13.11;57.97;102898.88;7359349;19;20010;-63
2022/03/26 08:58:14;;;;;;;0.00;0.00;;;;;;;13.37;57.97;102898.94;7362513;19;20019;-63
2022/03/26 09:00:39;;;;;;;0.00;0.00;;;;;;;13.66;58.17;102899.81;7361580;19;20387;-64
2022/03/26 09:03:05;;;;;;;0.00;0.00;;;;;;;13.94;57.53;102895.44;7360647;19;20010;-64
2022/03/26 09:05:30;;;;;;;0.00;0.00;;;;;;;14.23;57.18;102894.47;7362890;19;21599;-63
2022/03/26 09:07:56;;;;;;;0.00;0.00;;;;;;;14.37;57.73;102879.53;7360418;19;20090;-63
2022/03/26 09:10:22;;;;;;;0.00;0.00;;;;;;;14.79;57.26;102904.78;7356402;19;20871;-63
2022/03/26 09:12:48;;;;;;;0.00;0.00;;;;;;;15.00;56.79;102892.41;7356834;19;20003;-63
2022/03/26 09:15:13;;;;;;;0.00;0.00;;;;;;;15.31;56.02;102893.09;7350167;19;20144;-63
2022/03/26 09:17:40;;;;;;;0.00;0.00;;;;;;;15.65;56.01;102898.97;7355904;19;20019;-63
2022/03/26 09:20:07;;;;;;;0.00;0.00;;;;;;;15.93;55.72;102898.72;7351670;19;20022;-63
2022/03/26 09:22:33;;;;;;;0.10;0.10;;;;;;;16.22;55.41;102901.03;7332194;19;20472;-64
2022/03/26 09:24:59;;;;;;;0.00;0.00;;;;;;;16.52;55.69;102897.16;7342833;19;20035;-63
2022/03/26 09:27:24;;;;;;;0.00;0.00;;;;;;;16.82;55.21;102903.84;7358278;19;20426;-64
2022/03/26 09:29:50;;;;;;;0.00;0.00;;;;;;;17.11;54.87;102896.41;7354726;19;20014;-63
2022/03/26 09:32:15;;;;;;;0.00;0.00;;;;;;;17.45;54.24;102905.56;7361089;19;20019;-63
2022/03/26 09:34:41;;;;;;;0.00;0.00;;;;;;;17.76;53.50;102896.25;7360807;19;20011;-63
2022/03/26 09:37:06;;;;;;;0.00;0.00;;;;;;;18.08;53.28;102900.06;7357005;19;19999;-64
2022/03/26 09:39:32;;;;;;;0.00;0.00;;;;;;;18.40;53.24;102902.09;7355942;19;20394;-63
2022/03/26 09:41:57;;;;;;;0.00;0.00;;;;;;;18.68;52.25;102894.47;7360064;19;20010;-64
2022/03/26 09:44:23;;;;;;;0.10;0.10;;;;;;;19.04;51.65;102907.78;7356383;19;20049;-63
2022/03/26 09:46:49;;;;;;;0.00;0.00;;;;;;;19.34;51.29;102906.22;7359347;19;20014;-64
2022/03/26 09:49:14;;;;;;;0.00;0.00;;;;;;;19.64;50.42;102904.59;7349774;19;20705;-64
2022/03/26 09:51:40;;;;;;;0.00;0.00;;;;;;;19.86;49.81;102900.47;7351466;19;20526;-64
2022/03/26 09:54:07;;;;;;;0.00;0.00;;;;;;;20.21;48.92;102903.94;7348762;19;20010;-64
2022/03/26 09:56:34;;;;;;;0.05;0.05;;;;;;;20.50;48.78;102907.59;7355994;19;20014;-64
2022/03/26 09:59:00;;;;;;;0.00;0.00;;;;;;;20.74;47.50;102901.56;7339698;19;20019;-64
2022/03/26 10:01:26;;;;;;;0.10;0.10;;;;;;;21.05;47.32;102908.59;7350798;19;20810;-64
2022/03/26 10:04:13;;;;;;;0.10;0.10;;;;;;;21.48;47.56;102895.66;7344072;19;20037;-64
2022/03/26 10:06:53;;;;;;;0.00;0.00;;;;;;;21.72;47.24;102906.38;7353705;19;20034;-64
2022/03/26 10:09:41;;;;;;;0.10;0.10;;;;;;;22.03;46.71;102896.41;7334752;19;20018;-64
2022/03/26 10:12:10;;;;;;;0.00;0.00;;;;;;;22.15;44.95;102892.47;7357803;19;20022;-64
2022/03/26 10:14:41;;;;;;;0.10;0.10;;;;;;;22.45;45.48;102893.09;7339308;19;20014;-64
2022/03/26 10:17:18;;;;;;;0.10;0.10;;;;;;;22.64;44.50;102900.41;7355149;19;20364;-64
2022/03/26 10:19:49;;;;;;;0.03;0.03;;;;;;;23.01;43.98;102903.41;7356432;19;20015;-64
2022/03/26 10:22:36;;;;;;;0.10;0.10;;;;;;;23.33;44.38;102906.56;7344961;19;20026;-64
2022/03/26 10:25:10;;;;;;;0.00;0.00;;;;;;;23.54;43.00;102900.31;7352791;19;20015;-64
2022/03/26 10:27:39;;;;;;;0.00;0.00;;;;;;;23.65;42.41;102901.69;7346003;19;20421;-64
2022/03/26 10:30:06;;;;;;;0.00;0.00;;;;;;;23.90;41.19;102899.69;7347440;19;20010;-64
2022/03/26 10:32:41;;;;;;;0.00;0.00;;;;;;;24.21;41.64;102898.31;7346424;19;20009;-64
2022/03/26 10:35:17;;;;;;;0.00;0.00;;;;;;;24.54;40.17;102903.97;7349361;19;20801;-64
2022/03/26 10:38:01;;;;;;;0.00;0.00;;;;;;;24.92;41.27;102893.25;7345136;19;20071;-64
2022/03/26 10:40:36;;;;;;;0.10;0.10;;;;;;;25.14;38.83;102901.09;7354089;19;20014;-64
2022/03/26 10:43:11;;;;;;;0.10;0.10;;;;;;;25.41;38.43;102896.22;7356504;19;20575;-64
2022/03/26 10:45:51;;;;;;;0.10;0.10;;;;;;;25.77;38.98;102901.50;7332962;19;19998;-65
2022/03/26 10:48:23;;;;;;;0.08;0.08;;;;;;;26.04;39.27;102892.00;7335325;19;20030;-64
2022/03/26 10:50:58;;;;;;;0.00;0.00;;;;;;;26.31;37.12;102895.03;7318307;19;20032;-65
2022/03/26 10:53:34;;;;;;;0.10;0.10;;;;;;;26.60;37.81;102880.03;7332412;19;20014;-64
2022/03/26 10:56:01;;;;;;;0.00;0.00;;;;;;;26.79;34.83;102895.09;7337406;19;20030;-64
2022/03/26 10:58:27;;;;;;;0.00;0.00;;;;;;;26.95;35.68;102879.88;7340035;19;20021;-64
2022/03/26 11:00:53;;;;;;;0.00;0.00;;;;;;;27.31;34.18;102897.47;7350934;19;20765;-64
2022/03/26 11:03:19;;;;;;;0.10;0.10;;;;;;;27.59;34.25;102892.22;7355721;19;20757;-64
2022/03/26 11:05:46;;;;;;;0.00;0.00;;;;;;;27.83;32.66;102878.28;7354974;19;20014;-64
2022/03/26 11:08:13;;;;;;;0.10;0.10;;;;;;;28.12;33.24;102888.06;7355857;19;20010;-64
2022/03/26 11:10:40;;;;;;;0.00;0.00;;;;;;;28.41;32.94;102898.84;7359628;19;20002;-64
2022/03/26 11:13:10;;;;;;;0.10;0.10;;;;;;;28.76;32.32;102895.72;7357382;19;20006;-64
2022/03/26 11:15:42;;;;;;;0.10;0.10;;;;;;;28.99;30.63;102892.41;7353401;19;20027;-64
2022/03/26 11:18:30;;;;;;;0.08;0.08;;;;;;;29.31;31.94;102892.09;7357173;19;20367;-64
2022/03/26 11:21:13;;;;;;;0.00;0.00;;;;;;;29.65;32.50;102886.19;7363141;19;20030;-64
2022/03/26 11:24:08;;;;;;;0.10;0.10;;;;;;;29.90;31.53;102887.13;7360202;19;20006;-64
2022/03/26 11:26:52;;;;;;;0.00;0.00;;;;;;;30.20;31.94;102894.91;7254545;19;2004503;-64